sensor_id;sensor_type;location;lat;lon;timestamp;pressure;altitude;pressure_sealevel;temperature;humidity
11223;BME280;5668;52.012;8.724;2023-04-29T00:01:28;99688.63;;;14.75;96.32
11223;BME280;5668;52.012;8.724;2023-04-29T00:03:56;99689.44;;;14.76;96.19
11223;BME280;5668;52.012;8.724;2023-04-29T00:06:24;99691.25;;;14.75;96.46
11223;BME280;5668;52.012;8.724;2023-04-29T00:08:51;99693.50;;;14.70;96.47
11223;BME280;5668;52.012;8.724;2023-04-29T00:11:18;99697.63;;;14.73;96.62
11223;BME280;5668;52.012;8.724;2023-04-29T00:13:45;99693.72;;;14.77;96.34
11223;BME280;5668;52.012;8.724;2023-04-29T00:16:12;99696.78;;;14.72;96.65
11223;BME280;5668;52.012;8.724;2023-04-29T00:18:40;99699.41;;;14.72;96.84
11223;BME280;5668;52.012;8.724;2023-04-29T00:21:08;99706.56;;;14.70;96.96
11223;BME280;5668;52.012;8.724;2023-04-29T00:23:36;99703.28;;;14.68;97.47
11223;BME280;5668;52.012;8.724;2023-04-29T00:26:03;99709.09;;;14.62;97.98
11223;BME280;5668;52.012;8.724;2023-04-29T00:28:30;99711.03;;;14.60;98.75
11223;BME280;5668;52.012;8.724;2023-04-29T00:30:58;99713.97;;;14.57;99.22
11223;BME280;5668;52.012;8.724;2023-04-29T00:33:25;99713.97;;;14.57;99.81
11223;BME280;5668;52.012;8.724;2023-04-29T00:35:52;99715.22;;;14.53;99.54
11223;BME280;5668;52.012;8.724;2023-04-29T00:38:21;99715.44;;;14.42;100.00
11223;BME280;5668;52.012;8.724;2023-04-29T00:40:48;99723.13;;;14.43;100.00
11223;BME280;5668;52.012;8.724;2023-04-29T00:43:15;99724.38;;;14.39;100.00
11223;BME280;5668;52.012;8.724;2023-04-29T00:45:43;99720.94;;;14.39;100.00
11223;BME280;5668;52.012;8.724;2023-04-29T00:48:10;99723.28;;;14.42;100.00
11223;BME280;5668;52.012;8.724;2023-04-29T00:50:40;99725.88;;;14.42;100.00
11223;BME280;5668;52.012;8.724;2023-04-29T00:53:07;99732.75;;;14.43;100.00
11223;BME280;5668;52.012;8.724;2023-04-29T00:55:36;99734.13;;;14.37;100.00
11223;BME280;5668;52.012;8.724;2023-04-29T00:58:04;99733.28;;;14.37;100.00
11223;BME280;5668;52.012;8.724;2023-04-29T01:00:32;99736.63;;;14.39;100.00
11223;BME280;5668;52.012;8.724;2023-04-29T01:02:59;99738.41;;;14.38;100.00
11223;BME280;5668;52.012;8.724;2023-04-29T01:05:27;99748.72;;;14.40;100.00
11223;BME280;5668;52.012;8.724;2023-04-29T01:08:02;99740.75;;;14.41;99.79
11223;BME280;5668;52.012;8.724;2023-04-29T01:10:47;99745.16;;;14.41;98.44
11223;BME280;5668;52.012;8.724;2023-04-29T01:13:18;99753.25;;;14.38;99.33
11223;BME280;5668;52.012;8.724;2023-04-29T01:15:55;99752.84;;;14.32;98.72
11223;BME280;5668;52.012;8.724;2023-04-29T01:18:31;99761.66;;;14.31;98.63
11223;BME280;5668;52.012;8.724;2023-04-29T01:20:59;99755.59;;;14.31;98.47
11223;BME280;5668;52.012;8.724;2023-04-29T01:23:28;99763.59;;;14.29;98.10
11223;BME280;5668;52.012;8.724;2023-04-29T01:25:55;99764.56;;;14.28;98.07
11223;BME280;5668;52.012;8.724;2023-04-29T01:28:33;99765.00;;;14.24;97.71
11223;BME280;5668;52.012;8.724;2023-04-29T01:31:10;99764.47;;;14.20;97.50
11223;BME280;5668;52.012;8.724;2023-04-29T01:33:46;99765.59;;;14.18;96.93
11223;BME280;5668;52.012;8.724;2023-04-29T01:36:21;99769.97;;;14.17;97.20
11223;BME280;5668;52.012;8.724;2023-04-29T01:39:02;99777.44;;;14.12;96.63
11223;BME280;5668;52.012;8.724;2023-04-29T01:41:38;99776.19;;;14.07;96.74
11223;BME280;5668;52.012;8.724;2023-04-29T01:44:13;99776.88;;;14.09;97.13
11223;BME280;5668;52.012;8.724;2023-04-29T01:46:42;99781.41;;;14.07;97.01
11223;BME280;5668;52.012;8.724;2023-04-29T01:49:12;99786.81;;;14.05;97.24
11223;BME280;5668;52.012;8.724;2023-04-29T01:51:40;99790.09;;;14.07;96.80
11223;BME280;5668;52.012;8.724;2023-04-29T01:54:08;99793.00;;;14.04;97.00
11223;BME280;5668;52.012;8.724;2023-04-29T01:56:35;99785.44;;;14.01;96.80
11223;BME280;5668;52.012;8.724;2023-04-29T01:59:03;99796.56;;;14.03;96.67
11223;BME280;5668;52.012;8.724;2023-04-29T02:01:30;99796.84;;;14.00;96.39
11223;BME280;5668;52.012;8.724;2023-04-29T02:03:57;99789.59;;;13.94;97.33
11223;BME280;5668;52.012;8.724;2023-04-29T02:06:24;99798.38;;;13.93;97.24
11223;BME280;5668;52.012;8.724;2023-04-29T02:08:53;99802.91;;;13.91;97.50
11223;BME280;5668;52.012;8.724;2023-04-29T02:11:21;99799.34;;;13.92;97.54
11223;BME280;5668;52.012;8.724;2023-04-29T02:13:48;99803.91;;;13.90;97.89
11223;BME280;5668;52.012;8.724;2023-04-29T02:16:16;99806.50;;;13.90;98.01
11223;BME280;5668;52.012;8.724;2023-04-29T02:18:43;99811.75;;;13.90;98.19
11223;BME280;5668;52.012;8.724;2023-04-29T02:21:11;99809.41;;;13.87;98.00
11223;BME280;5668;52.012;8.724;2023-04-29T02:23:38;99811.31;;;13.85;98.09
11223;BME280;5668;52.012;8.724;2023-04-29T02:26:05;99812.97;;;13.86;98.33
11223;BME280;5668;52.012;8.724;2023-04-29T02:28:36;99820.41;;;13.81;98.23
11223;BME280;5668;52.012;8.724;2023-04-29T02:31:03;99817.78;;;13.81;98.82
11223;BME280;5668;52.012;8.724;2023-04-29T02:33:30;99813.53;;;13.80;98.96
11223;BME280;5668;52.012;8.724;2023-04-29T02:35:58;99819.72;;;13.79;99.36
11223;BME280;5668;52.012;8.724;2023-04-29T02:38:25;99821.81;;;13.75;99.65
11223;BME280;5668;52.012;8.724;2023-04-29T02:40:52;99819.84;;;13.77;100.00
11223;BME280;5668;52.012;8.724;2023-04-29T02:43:20;99826.19;;;13.75;99.91
11223;BME280;5668;52.012;8.724;2023-04-29T02:45:48;99830.44;;;13.76;99.42
11223;BME280;5668;52.012;8.724;2023-04-29T02:48:15;99826.47;;;13.72;100.00
11223;BME280;5668;52.012;8.724;2023-04-29T02:50:43;99830.72;;;13.73;100.00
11223;BME280;5668;52.012;8.724;2023-04-29T02:53:10;99836.22;;;13.70;100.00
11223;BME280;5668;52.012;8.724;2023-04-29T02:55:37;99832.94;;;13.68;100.00
11223;BME280;5668;52.012;8.724;2023-04-29T02:58:05;99840.06;;;13.66;100.00
11223;BME280;5668;52.012;8.724;2023-04-29T03:00:32;99842.69;;;13.66;100.00
11223;BME280;5668;52.012;8.724;2023-04-29T03:03:00;99840.06;;;13.66;100.00
11223;BME280;5668;52.012;8.724;2023-04-29T03:05:27;99845.69;;;13.61;100.00
11223;BME280;5668;52.012;8.724;2023-04-29T03:07:55;99842.94;;;13.63;100.00
11223;BME280;5668;52.012;8.724;2023-04-29T03:10:22;99843.09;;;13.61;100.00
11223;BME280;5668;52.012;8.724;2023-04-29T03:12:50;99853.69;;;13.60;100.00
11223;BME280;5668;52.012;8.724;2023-04-29T03:15:17;99846.94;;;13.57;100.00
11223;BME280;5668;52.012;8.724;2023-04-29T03:17:44;99846.38;;;13.53;100.00
11223;BME280;5668;52.012;8.724;2023-04-29T03:20:14;99846.53;;;13.52;100.00
11223;BME280;5668;52.012;8.724;2023-04-29T03:22:42;99847.38;;;13.52;100.00
11223;BME280;5668;52.012;8.724;2023-04-29T03:25:09;99851.06;;;13.50;100.00
11223;BME280;5668;52.012;8.724;2023-04-29T03:27:36;99860.69;;;13.49;100.00
11223;BME280;5668;52.012;8.724;2023-04-29T03:30:04;99858.78;;;13.51;100.00
11223;BME280;5668;52.012;8.724;2023-04-29T03:32:32;99859.47;;;13.44;100.00
11223;BME280;5668;52.012;8.724;2023-04-29T03:34:59;99865.50;;;13.44;100.00
11223;BME280;5668;52.012;8.724;2023-04-29T03:37:28;99861.25;;;13.43;100.00
11223;BME280;5668;52.012;8.724;2023-04-29T03:39:55;99865.50;;;13.44;100.00
11223;BME280;5668;52.012;8.724;2023-04-29T03:42:22;99871.81;;;13.42;100.00
11223;BME280;5668;52.012;8.724;2023-04-29T03:44:49;99865.75;;;13.41;100.00
11223;BME280;5668;52.012;8.724;2023-04-29T03:47:17;99872.22;;;13.37;100.00
11223;BME280;5668;52.012;8.724;2023-04-29T03:49:44;99870.13;;;13.31;100.00
11223;BME280;5668;52.012;8.724;2023-04-29T03:52:11;99874.41;;;13.32;100.00
11223;BME280;5668;52.012;8.724;2023-04-29T03:54:40;99872.50;;;13.34;100.00
11223;BME280;5668;52.012;8.724;2023-04-29T03:57:07;99884.00;;;13.32;100.00
11223;BME280;5668;52.012;8.724;2023-04-29T03:59:35;99885.78;;;13.31;100.00
11223;BME280;5668;52.012;8.724;2023-04-29T04:02:02;99883.88;;;13.33;100.00
11223;BME280;5668;52.012;8.724;2023-04-29T04:04:29;99884.00;;;13.32;100.00
11223;BME280;5668;52.012;8.724;2023-04-29T04:06:56;99892.66;;;13.32;100.00
11223;BME280;5668;52.012;8.724;2023-04-29T04:09:24;99894.88;;;13.27;100.00
11223;BME280;5668;52.012;8.724;2023-04-29T04:11:52;99895.69;;;13.28;100.00
11223;BME280;5668;52.012;8.724;2023-04-29T04:14:19;99900.22;;;13.26;100.00
11223;BME280;5668;52.012;8.724;2023-04-29T04:16:46;99909.28;;;13.22;100.00
11223;BME280;5668;52.012;8.724;2023-04-29T04:19:15;99913.94;;;13.18;100.00
11223;BME280;5668;52.012;8.724;2023-04-29T04:21:42;99916.53;;;13.18;100.00
11223;BME280;5668;52.012;8.724;2023-04-29T04:24:10;99920.59;;;13.11;100.00
11223;BME280;5668;52.012;8.724;2023-04-29T04:26:37;99927.31;;;13.04;100.00
11223;BME280;5668;52.012;8.724;2023-04-29T04:29:05;99928.97;;;13.05;100.00
11223;BME280;5668;52.012;8.724;2023-04-29T04:31:32;99937.34;;;12.99;100.00
11223;BME280;5668;52.012;8.724;2023-04-29T04:34:01;99937.59;;;12.96;100.00
11223;BME280;5668;52.012;8.724;2023-04-29T04:36:28;99938.81;;;12.92;100.00
11223;BME280;5668;52.012;8.724;2023-04-29T04:38:56;99945.22;;;12.88;100.00
11223;BME280;5668;52.012;8.724;2023-04-29T04:41:23;99948.78;;;12.87;100.00
11223;BME280;5668;52.012;8.724;2023-04-29T04:43:50;99949.63;;;12.87;100.00
11223;BME280;5668;52.012;8.724;2023-04-29T04:46:19;99957.16;;;12.80;100.00
11223;BME280;5668;52.012;8.724;2023-04-29T04:48:46;99957.66;;;12.74;100.00
11223;BME280;5668;52.012;8.724;2023-04-29T04:51:13;99959.56;;;12.72;100.00
11223;BME280;5668;52.012;8.724;2023-04-29T04:53:41;99969.88;;;12.74;100.00
11223;BME280;5668;52.012;8.724;2023-04-29T04:56:08;99972.88;;;12.69;100.00
11223;BME280;5668;52.012;8.724;2023-04-29T04:58:35;99973.84;;;12.68;100.00
11223;BME280;5668;52.012;8.724;2023-04-29T05:01:03;99978.41;;;12.76;100.00
11223;BME280;5668;52.012;8.724;2023-04-29T05:03:31;99980.88;;;12.77;100.00
11223;BME280;5668;52.012;8.724;2023-04-29T05:05:59;99987.19;;;12.75;100.00
11223;BME280;5668;52.012;8.724;2023-04-29T05:08:27;99983.63;;;12.76;100.00
11223;BME280;5668;52.012;8.724;2023-04-29T05:10:54;99989.38;;;12.79;100.00
11223;BME280;5668;52.012;8.724;2023-04-29T05:13:22;99992.41;;;12.75;100.00
11223;BME280;5668;52.012;8.724;2023-04-29T05:15:50;100003.66;;;12.75;100.00
11223;BME280;5668;52.012;8.724;2023-04-29T05:18:17;100007.22;;;12.74;100.00
11223;BME280;5668;52.012;8.724;2023-04-29T05:20:46;100002.50;;;12.68;100.00
11223;BME280;5668;52.012;8.724;2023-04-29T05:23:13;100006.63;;;12.71;100.00
11223;BME280;5668;52.012;8.724;2023-04-29T05:25:40;100007.97;;;12.65;100.00
11223;BME280;5668;52.012;8.724;2023-04-29T05:28:08;100009.38;;;12.69;100.00
11223;BME280;5668;52.012;8.724;2023-04-29T05:30:35;100007.44;;;12.71;100.00
11223;BME280;5668;52.012;8.724;2023-04-29T05:33:02;100012.94;;;12.68;100.00
11223;BME280;5668;52.012;8.724;2023-04-29T05:35:30;100015.69;;;12.67;100.00
11223;BME280;5668;52.012;8.724;2023-04-29T05:37:58;100012.34;;;12.65;100.00
11223;BME280;5668;52.012;8.724;2023-04-29T05:40:25;100019.34;;;12.64;100.00
11223;BME280;5668;52.012;8.724;2023-04-29T05:42:53;100027.63;;;12.69;100.00
11223;BME280;5668;52.012;8.724;2023-04-29T05:45:20;100025.03;;;12.69;100.00
11223;BME280;5668;52.012;8.724;2023-04-29T05:47:47;100031.91;;;12.70;100.00
11223;BME280;5668;52.012;8.724;2023-04-29T05:50:16;100037.13;;;12.70;100.00
11223;BME280;5668;52.012;8.724;2023-04-29T05:52:44;100034.63;;;12.69;100.00
11223;BME280;5668;52.012;8.724;2023-04-29T05:55:12;100028.59;;;12.68;100.00
11223;BME280;5668;52.012;8.724;2023-04-29T05:57:40;100035.88;;;12.74;100.00
11223;BME280;5668;52.012;8.724;2023-04-29T06:00:08;100047.59;;;12.80;100.00
11223;BME280;5668;52.012;8.724;2023-04-29T06:02:36;100047.72;;;12.78;100.00
11223;BME280;5668;52.012;8.724;2023-04-29T06:05:05;100050.47;;;12.77;100.00
11223;BME280;5668;52.012;8.724;2023-04-29T06:07:33;100054.84;;;12.76;100.00
11223;BME280;5668;52.012;8.724;2023-04-29T06:10:00;100063.50;;;12.77;100.00
11223;BME280;5668;52.012;8.724;2023-04-29T06:12:29;100071.06;;;12.80;100.00
11223;BME280;5668;52.012;8.724;2023-04-29T06:14:56;100077.09;;;12.80;100.00
11223;BME280;5668;52.012;8.724;2023-04-29T06:17:23;100078.75;;;12.82;100.00
11223;BME280;5668;52.012;8.724;2023-04-29T06:19:54;100075.19;;;12.83;100.00
11223;BME280;5668;52.012;8.724;2023-04-29T06:22:21;100083.59;;;12.86;100.00
11223;BME280;5668;52.012;8.724;2023-04-29T06:24:48;100088.38;;;12.81;100.00
11223;BME280;5668;52.012;8.724;2023-04-29T06:27:16;100087.66;;;12.79;100.00
11223;BME280;5668;52.012;8.724;2023-04-29T06:29:44;100090.41;;;12.77;100.00
11223;BME280;5668;52.012;8.724;2023-04-29T06:32:12;100091.22;;;12.78;100.00
11223;BME280;5668;52.012;8.724;2023-04-29T06:34:39;100099.84;;;12.78;100.00
11223;BME280;5668;52.012;8.724;2023-04-29T06:37:06;100103.19;;;12.80;100.00
11223;BME280;5668;52.012;8.724;2023-04-29T06:39:33;100107.31;;;12.83;100.00
11223;BME280;5668;52.012;8.724;2023-04-29T06:42:01;100115.03;;;12.85;100.00
11223;BME280;5668;52.012;8.724;2023-04-29T06:44:28;100122.84;;;12.85;100.00
11223;BME280;5668;52.012;8.724;2023-04-29T06:46:57;100118.94;;;12.79;100.00
11223;BME280;5668;52.012;8.724;2023-04-29T06:49:24;100125.09;;;12.78;100.00
11223;BME280;5668;52.012;8.724;2023-04-29T06:51:51;100128.53;;;12.78;100.00
11223;BME280;5668;52.012;8.724;2023-04-29T06:54:19;100133.31;;;12.73;100.00
11223;BME280;5668;52.012;8.724;2023-04-29T06:56:46;100145.66;;;12.71;100.00
11223;BME280;5668;52.012;8.724;2023-04-29T06:59:13;100143.31;;;12.68;100.00
11223;BME280;5668;52.012;8.724;2023-04-29T07:01:41;100150.41;;;12.66;100.00
11223;BME280;5668;52.012;8.724;2023-04-29T07:04:09;100154.34;;;12.61;100.00
11223;BME280;5668;52.012;8.724;2023-04-29T07:06:36;100149.03;;;12.62;100.00
11223;BME280;5668;52.012;8.724;2023-04-29T07:09:04;100158.47;;;12.63;100.00
11223;BME280;5668;52.012;8.724;2023-04-29T07:11:31;100158.03;;;12.58;100.00
11223;BME280;5668;52.012;8.724;2023-04-29T07:13:58;100159.69;;;12.59;100.00
11223;BME280;5668;52.012;8.724;2023-04-29T07:16:25;100172.00;;;12.68;100.00
11223;BME280;5668;52.012;8.724;2023-04-29T07:18:53;100169.50;;;12.67;100.00
11223;BME280;5668;52.012;8.724;2023-04-29T07:21:21;100175.53;;;12.67;100.00
11223;BME280;5668;52.012;8.724;2023-04-29T07:23:49;100178.25;;;12.66;100.00
11223;BME280;5668;52.012;8.724;2023-04-29T07:26:17;100174.94;;;12.64;100.00
11223;BME280;5668;52.012;8.724;2023-04-29T07:28:44;100183.59;;;12.64;100.00
11223;BME280;5668;52.012;8.724;2023-04-29T07:31:11;100183.75;;;12.63;100.00
11223;BME280;5668;52.012;8.724;2023-04-29T07:33:39;100192.63;;;12.60;100.00
11223;BME280;5668;52.012;8.724;2023-04-29T07:36:06;100199.00;;;12.67;100.00
11223;BME280;5668;52.012;8.724;2023-04-29T07:38:35;100195.78;;;12.75;100.00
11223;BME280;5668;52.012;8.724;2023-04-29T07:41:02;100203.59;;;12.75;100.00
11223;BME280;5668;52.012;8.724;2023-04-29T07:43:30;100207.41;;;12.71;100.00
11223;BME280;5668;52.012;8.724;2023-04-29T07:45:57;100209.06;;;12.72;100.00
11223;BME280;5668;52.012;8.724;2023-04-29T07:48:24;100208.09;;;12.73;100.00
11223;BME280;5668;52.012;8.724;2023-04-29T07:50:52;100212.50;;;12.72;100.00
11223;BME280;5668;52.012;8.724;2023-04-29T07:53:19;100219.13;;;12.76;100.00
11223;BME280;5668;52.012;8.724;2023-04-29T07:55:48;100220.53;;;12.80;100.00
11223;BME280;5668;52.012;8.724;2023-04-29T07:58:15;100229.19;;;12.81;100.00
11223;BME280;5668;52.012;8.724;2023-04-29T08:00:42;100226.06;;;12.87;100.00
11223;BME280;5668;52.012;8.724;2023-04-29T08:03:10;100228.19;;;12.93;100.00
11223;BME280;5668;52.012;8.724;2023-04-29T08:05:38;100231.63;;;12.94;100.00
11223;BME280;5668;52.012;8.724;2023-04-29T08:08:05;100236.38;;;13.00;100.00
11223;BME280;5668;52.012;8.724;2023-04-29T08:10:32;100244.66;;;12.94;100.00
11223;BME280;5668;52.012;8.724;2023-04-29T08:13:07;100249.66;;;12.97;100.00
11223;BME280;5668;52.012;8.724;2023-04-29T08:15:34;100247.63;;;13.00;100.00
11223;BME280;5668;52.012;8.724;2023-04-29T08:18:01;100259.63;;;12.92;100.00
11223;BME280;5668;52.012;8.724;2023-04-29T08:20:28;100260.91;;;12.97;100.00
11223;BME280;5668;52.012;8.724;2023-04-29T08:22:57;100270.50;;;12.97;100.00
11223;BME280;5668;52.012;8.724;2023-04-29T08:25:25;100271.22;;;12.99;100.00
11223;BME280;5668;52.012;8.724;2023-04-29T08:27:53;100275.50;;;13.00;100.00
11223;BME280;5668;52.012;8.724;2023-04-29T08:30:22;100281.16;;;13.05;100.00
11223;BME280;5668;52.012;8.724;2023-04-29T08:32:49;100287.66;;;13.10;100.00
11223;BME280;5668;52.012;8.724;2023-04-29T08:35:16;100286.94;;;13.08;99.82
11223;BME280;5668;52.012;8.724;2023-04-29T08:37:44;100293.63;;;13.01;99.37
11223;BME280;5668;52.012;8.724;2023-04-29T08:40:13;100291.59;;;13.05;98.82
11223;BME280;5668;52.012;8.724;2023-04-29T08:42:44;100305.09;;;13.10;99.23
11223;BME280;5668;52.012;8.724;2023-04-29T08:45:12;100303.19;;;13.12;98.31
11223;BME280;5668;52.012;8.724;2023-04-29T08:47:43;100305.59;;;13.15;98.97
11223;BME280;5668;52.012;8.724;2023-04-29T08:50:12;100304.63;;;13.16;97.73
11223;BME280;5668;52.012;8.724;2023-04-29T08:52:40;100304.78;;;13.14;98.61
11223;BME280;5668;52.012;8.724;2023-04-29T08:55:08;100299.16;;;13.19;98.74
11223;BME280;5668;52.012;8.724;2023-04-29T08:57:36;100300.72;;;13.22;99.36
11223;BME280;5668;52.012;8.724;2023-04-29T09:00:06;100306.63;;;13.24;99.26
11223;BME280;5668;52.012;8.724;2023-04-29T09:02:36;100313.16;;;13.18;98.69
11223;BME280;5668;52.012;8.724;2023-04-29T09:05:08;100310.56;;;13.18;99.04
11223;BME280;5668;52.012;8.724;2023-04-29T09:07:37;100308.53;;;13.22;99.11
11223;BME280;5668;52.012;8.724;2023-04-29T09:10:06;100316.00;;;13.26;99.61
11223;BME280;5668;52.012;8.724;2023-04-29T09:12:34;100314.34;;;13.25;99.75
11223;BME280;5668;52.012;8.724;2023-04-29T09:15:02;100315.16;;;13.26;98.83
11223;BME280;5668;52.012;8.724;2023-04-29T09:17:40;100322.03;;;13.27;98.30
11223;BME280;5668;52.012;8.724;2023-04-29T09:20:36;100321.41;;;13.34;98.59
11223;BME280;5668;52.012;8.724;2023-04-29T09:23:03;100318.31;;;13.40;98.73
11223;BME280;5668;52.012;8.724;2023-04-29T09:25:31;100325.31;;;13.40;98.19
11223;BME280;5668;52.012;8.724;2023-04-29T09:27:58;100328.25;;;13.46;98.05
11223;BME280;5668;52.012;8.724;2023-04-29T09:30:45;100328.00;;;13.49;97.50
11223;BME280;5668;52.012;8.724;2023-04-29T09:33:12;100321.31;;;13.56;97.19
11223;BME280;5668;52.012;8.724;2023-04-29T09:35:43;100327.25;;;13.59;96.27
11223;BME280;5668;52.012;8.724;2023-04-29T09:38:13;100328.66;;;13.63;95.65
11223;BME280;5668;52.012;8.724;2023-04-29T09:40:41;100333.88;;;13.63;94.75
11223;BME280;5668;52.012;8.724;2023-04-29T09:43:13;100333.63;;;13.66;95.36
11223;BME280;5668;52.012;8.724;2023-04-29T09:45:42;100332.28;;;13.71;95.30
11223;BME280;5668;52.012;8.724;2023-04-29T09:48:10;100337.50;;;13.71;94.40
11223;BME280;5668;52.012;8.724;2023-04-29T09:50:39;100334.78;;;13.73;94.26
11223;BME280;5668;52.012;8.724;2023-04-29T09:53:09;100347.00;;;13.72;94.60
11223;BME280;5668;52.012;8.724;2023-04-29T09:55:37;100348.41;;;13.76;93.98
11223;BME280;5668;52.012;8.724;2023-04-29T09:58:29;100348.88;;;13.81;93.05
11223;BME280;5668;52.012;8.724;2023-04-29T10:00:59;100345.88;;;13.86;92.53
11223;BME280;5668;52.012;8.724;2023-04-29T10:03:32;100343.84;;;13.89;92.65
11223;BME280;5668;52.012;8.724;2023-04-29T10:06:00;100356.28;;;13.97;92.26
11223;BME280;5668;52.012;8.724;2023-04-29T10:08:30;100349.81;;;14.01;92.16
11223;BME280;5668;52.012;8.724;2023-04-29T10:10:59;100359.75;;;14.07;90.15
11223;BME280;5668;52.012;8.724;2023-04-29T10:13:27;100362.00;;;14.12;90.49
11223;BME280;5668;52.012;8.724;2023-04-29T10:15:59;100364.22;;;14.16;89.47
11223;BME280;5668;52.012;8.724;2023-04-29T10:18:34;100365.75;;;14.19;88.84
11223;BME280;5668;52.012;8.724;2023-04-29T10:21:04;100370.16;;;14.18;88.31
11223;BME280;5668;52.012;8.724;2023-04-29T10:23:34;100370.88;;;14.20;88.21
11223;BME280;5668;52.012;8.724;2023-04-29T10:26:03;100369.56;;;14.15;87.87
11223;BME280;5668;52.012;8.724;2023-04-29T10:28:32;100369.44;;;14.16;88.17
11223;BME280;5668;52.012;8.724;2023-04-29T10:31:01;100368.25;;;14.20;88.29
11223;BME280;5668;52.012;8.724;2023-04-29T10:33:30;100372.94;;;14.26;89.27
11223;BME280;5668;52.012;8.724;2023-04-29T10:35:59;100374.09;;;14.33;88.74
11223;BME280;5668;52.012;8.724;2023-04-29T10:38:30;100376.69;;;14.33;87.30
11223;BME280;5668;52.012;8.724;2023-04-29T10:41:03;100372.19;;;14.36;87.13
11223;BME280;5668;52.012;8.724;2023-04-29T10:43:34;100377.41;;;14.36;85.64
11223;BME280;5668;52.012;8.724;2023-04-29T10:46:19;100372.44;;;14.32;85.00
11223;BME280;5668;52.012;8.724;2023-04-29T10:48:47;100369.69;;;14.34;85.49
11223;BME280;5668;52.012;8.724;2023-04-29T10:51:28;100370.06;;;14.29;85.50
11223;BME280;5668;52.012;8.724;2023-04-29T10:53:58;100375.28;;;14.29;86.12
11223;BME280;5668;52.012;8.724;2023-04-29T10:56:40;100375.03;;;14.32;85.44
11223;BME280;5668;52.012;8.724;2023-04-29T10:59:11;100379.19;;;14.35;86.71
11223;BME280;5668;52.012;8.724;2023-04-29T11:01:47;100389.06;;;14.31;84.99
11223;BME280;5668;52.012;8.724;2023-04-29T11:04:15;100387.16;;;14.33;85.24
11223;BME280;5668;52.012;8.724;2023-04-29T11:06:45;100386.34;;;14.33;85.39
11223;BME280;5668;52.012;8.724;2023-04-29T11:09:14;100386.06;;;14.36;86.14
11223;BME280;5668;52.012;8.724;2023-04-29T11:11:57;100383.31;;;14.38;84.98
11223;BME280;5668;52.012;8.724;2023-04-29T11:14:27;100380.03;;;14.36;85.22
11223;BME280;5668;52.012;8.724;2023-04-29T11:16:57;100381.56;;;14.38;86.27
11223;BME280;5668;52.012;8.724;2023-04-29T11:19:29;100380.50;;;14.41;85.51
11223;BME280;5668;52.012;8.724;2023-04-29T11:22:08;100388.63;;;14.47;86.00
11223;BME280;5668;52.012;8.724;2023-04-29T11:24:41;100383.84;;;14.52;86.09
11223;BME280;5668;52.012;8.724;2023-04-29T11:27:16;100389.22;;;14.51;84.19
11223;BME280;5668;52.012;8.724;2023-04-29T11:29:44;100391.31;;;14.57;83.50
11223;BME280;5668;52.012;8.724;2023-04-29T11:32:12;100390.06;;;14.61;82.33
11223;BME280;5668;52.012;8.724;2023-04-29T11:34:40;100389.53;;;14.57;81.63
11223;BME280;5668;52.012;8.724;2023-04-29T11:37:07;100390.38;;;14.67;82.07
11223;BME280;5668;52.012;8.724;2023-04-29T11:39:35;100387.09;;;14.75;82.77
11223;BME280;5668;52.012;8.724;2023-04-29T11:42:03;100387.03;;;14.86;82.01
11223;BME280;5668;52.012;8.724;2023-04-29T11:44:33;100389.94;;;14.93;79.96
11223;BME280;5668;52.012;8.724;2023-04-29T11:47:03;100392.66;;;14.91;78.10
11223;BME280;5668;52.012;8.724;2023-04-29T11:49:31;100402.72;;;14.86;77.32
11223;BME280;5668;52.012;8.724;2023-04-29T11:51:59;100401.75;;;14.87;78.81
11223;BME280;5668;52.012;8.724;2023-04-29T11:54:26;100407.16;;;14.95;79.44
11223;BME280;5668;52.012;8.724;2023-04-29T11:56:54;100413.06;;;14.97;80.00
11223;BME280;5668;52.012;8.724;2023-04-29T11:59:22;100415.69;;;14.97;79.46
11223;BME280;5668;52.012;8.724;2023-04-29T12:01:50;100420.66;;;15.00;79.91
11223;BME280;5668;52.012;8.724;2023-04-29T12:04:18;100418.88;;;15.01;79.85
11223;BME280;5668;52.012;8.724;2023-04-29T12:06:45;100422.75;;;15.06;80.45
11223;BME280;5668;52.012;8.724;2023-04-29T12:09:17;100426.59;;;15.02;80.51
11223;BME280;5668;52.012;8.724;2023-04-29T12:11:44;100417.50;;;15.06;79.91
11223;BME280;5668;52.012;8.724;2023-04-29T12:14:12;100425.78;;;15.11;79.00
11223;BME280;5668;52.012;8.724;2023-04-29T12:16:40;100423.44;;;15.08;78.59
11223;BME280;5668;52.012;8.724;2023-04-29T12:19:09;100427.69;;;15.00;77.85
11223;BME280;5668;52.012;8.724;2023-04-29T12:21:37;100428.53;;;15.00;76.74
11223;BME280;5668;52.012;8.724;2023-04-29T12:24:14;100427.00;;;14.98;76.29
11223;BME280;5668;52.012;8.724;2023-04-29T12:26:44;100424.66;;;15.04;76.13
11223;BME280;5668;52.012;8.724;2023-04-29T12:29:12;100427.75;;;15.19;75.89
11223;BME280;5668;52.012;8.724;2023-04-29T12:31:40;100423.78;;;15.25;76.22
11223;BME280;5668;52.012;8.724;2023-04-29T12:34:09;100427.50;;;15.32;74.79
11223;BME280;5668;52.012;8.724;2023-04-29T12:36:37;100428.47;;;15.31;73.17
11223;BME280;5668;52.012;8.724;2023-04-29T12:39:05;100427.06;;;15.27;74.19
11223;BME280;5668;52.012;8.724;2023-04-29T12:41:39;100436.88;;;15.25;74.82
11223;BME280;5668;52.012;8.724;2023-04-29T12:44:07;100429.69;;;15.17;74.71
11223;BME280;5668;52.012;8.724;2023-04-29T12:46:37;100432.44;;;15.16;74.58
11223;BME280;5668;52.012;8.724;2023-04-29T12:49:05;100429.09;;;15.14;75.92
11223;BME280;5668;52.012;8.724;2023-04-29T12:51:34;100431.72;;;15.14;76.49
11223;BME280;5668;52.012;8.724;2023-04-29T12:54:03;100429.09;;;15.14;76.49
11223;BME280;5668;52.012;8.724;2023-04-29T12:56:32;100431.72;;;15.14;77.17
11223;BME280;5668;52.012;8.724;2023-04-29T12:59:04;100435.31;;;15.13;76.50
11223;BME280;5668;52.012;8.724;2023-04-29T13:01:33;100436.78;;;15.05;76.50
11223;BME280;5668;52.012;8.724;2023-04-29T13:04:00;100434.88;;;15.07;76.79
11223;BME280;5668;52.012;8.724;2023-04-29T13:06:27;100441.06;;;15.06;76.70
11223;BME280;5668;52.012;8.724;2023-04-29T13:08:56;100443.81;;;15.05;76.42